< < Back
Terminal Aerodrome Forecast


Current Version              Previous Versions:   1  2  3  4  5  6  7  8  9  

Terminal Aerodrome Forecast

696
FTUS42 KGSP 212100 AAA
TAFGSP
TAF AMD
KGSP 212102Z 2121/2218 32005KT P6SM SCT070
     FM220000 35007KT P6SM FEW050
     FM220600 35005KT P6SM SKC=



Latest METAR

632
SAUS70 KWBC 220100 RRH
MTRGSP
METAR KGSP 220053Z 35004KT 10SM CLR 14/06 A2994 RMK AO2 SLP135
T01390061


USA.gov is the U.S. government's official web portal to all federal, state and local government web resources and services.